createdAt,value
2022-10-26T00:04:08.917Z,13.03
2022-10-26T00:09:00.682Z,13.04
2022-10-26T00:13:52.401Z,13.05
2022-10-26T00:18:44.078Z,13.07
2022-10-26T00:23:36.170Z,13.08
2022-10-26T00:28:28.305Z,13.10
2022-10-26T00:33:20.257Z,13.13
2022-10-26T00:38:11.990Z,13.15
2022-10-26T00:43:03.820Z,13.16
2022-10-26T00:47:58.716Z,13.18
2022-10-26T00:52:53.029Z,13.22
2022-10-26T00:57:44.985Z,13.24
2022-10-26T01:02:36.719Z,13.25
2022-10-26T01:07:28.396Z,13.28
2022-10-26T01:12:20.102Z,13.30
2022-10-26T01:17:11.881Z,13.34
2022-10-26T01:22:12.716Z,13.39
2022-10-26T01:27:13.597Z,13.43
2022-10-26T01:32:13.136Z,13.46
2022-10-26T01:37:12.801Z,13.51
2022-10-26T01:42:07.267Z,13.55
2022-10-26T01:47:01.641Z,13.60
2022-10-26T01:51:53.412Z,13.63
2022-10-26T01:56:52.314Z,13.66
2022-10-26T02:01:44.366Z,13.70
2022-10-26T02:07:04.531Z,13.71
2022-10-26T02:11:57.039Z,13.73
2022-10-26T02:16:48.618Z,13.75
2022-10-26T02:21:49.033Z,13.76
2022-10-26T02:26:44.190Z,13.78
2022-10-26T02:31:37.951Z,13.82
2022-10-26T02:36:33.510Z,13.84
2022-10-26T02:41:28.292Z,13.85
2022-10-26T02:46:23.609Z,13.84
2022-10-26T02:51:21.416Z,13.87
2022-10-26T02:56:20.430Z,13.89
2022-10-26T03:01:13.481Z,13.90
2022-10-26T03:06:05.320Z,13.92
2022-10-26T03:10:58.057Z,13.92
2022-10-26T03:15:49.803Z,13.95
2022-10-26T03:20:44.920Z,13.95
2022-10-26T03:25:36.628Z,13.93
2022-10-26T03:30:29.574Z,13.96
2022-10-26T03:35:21.434Z,13.99
2022-10-26T03:40:13.639Z,13.97
2022-10-26T03:45:06.411Z,13.95
2022-10-26T03:49:58.135Z,13.96
2022-10-26T03:54:50.100Z,13.94
2022-10-26T03:59:41.697Z,13.96
2022-10-26T04:04:33.448Z,13.94
2022-10-26T04:09:25.179Z,13.96
2022-10-26T04:14:16.820Z,13.96
2022-10-26T04:19:08.613Z,13.97
2022-10-26T04:24:00.250Z,13.96
2022-10-26T04:28:51.942Z,13.99
2022-10-26T04:33:43.599Z,13.97
2022-10-26T04:38:35.262Z,14.00
2022-10-26T04:43:27.023Z,13.99
2022-10-26T04:48:18.751Z,13.94
2022-10-26T04:53:10.508Z,13.88
2022-10-26T04:58:02.643Z,13.83
2022-10-26T05:02:59.996Z,13.78
2022-10-26T05:07:56.320Z,13.69
2022-10-26T05:12:59.457Z,13.63
2022-10-26T05:18:05.833Z,13.57
2022-10-26T05:22:58.797Z,13.54
2022-10-26T05:27:50.421Z,13.51
2022-10-26T05:32:42.099Z,13.49
2022-10-26T05:37:33.932Z,13.48
2022-10-26T05:42:25.605Z,13.42
2022-10-26T05:47:17.390Z,13.40
2022-10-26T05:52:09.165Z,13.39
2022-10-26T05:57:01.302Z,13.35
2022-10-26T06:02:05.031Z,13.36
2022-10-26T06:06:57.593Z,13.33
2022-10-26T06:16:50.666Z,13.32
2022-10-26T06:21:54.234Z,13.32
2022-10-26T06:27:19.799Z,13.32
2022-10-26T06:32:12.249Z,13.31
2022-10-26T06:37:04.970Z,13.31
2022-10-26T06:41:58.016Z,13.30
2022-10-26T06:47:34.054Z,13.35
2022-10-26T06:52:30.106Z,13.37
2022-10-26T06:57:24.065Z,13.36
2022-10-26T07:02:15.894Z,13.36
2022-10-26T07:07:12.010Z,13.37
2022-10-26T07:12:03.945Z,13.37
2022-10-26T07:16:57.141Z,13.40
2022-10-26T07:21:48.853Z,13.42
2022-10-26T07:26:40.670Z,13.43
2022-10-26T07:31:32.354Z,13.44
2022-10-26T07:36:24.174Z,13.43
2022-10-26T07:41:15.875Z,13.44
2022-10-26T07:46:07.535Z,13.47
2022-10-26T07:51:03.059Z,13.51
2022-10-26T07:55:56.225Z,13.53
2022-10-26T08:00:48.091Z,13.54
2022-10-26T08:05:39.772Z,13.59
2022-10-26T08:10:31.634Z,13.67
2022-10-26T08:15:23.260Z,13.90
2022-10-26T08:20:15.026Z,14.39
2022-10-26T08:25:06.893Z,14.90
2022-10-26T08:29:58.537Z,15.33
2022-10-26T08:34:50.215Z,15.82
2022-10-26T08:39:41.875Z,16.24
2022-10-26T08:44:44.551Z,16.67
2022-10-26T08:49:48.853Z,17.06
2022-10-26T08:54:44.885Z,17.09
2022-10-26T08:59:42.965Z,17.07
2022-10-26T09:04:35.792Z,16.88
2022-10-26T09:10:01.054Z,16.66
2022-10-26T09:15:26.569Z,16.36
2022-10-26T09:20:33.131Z,16.20
2022-10-26T09:25:29.667Z,16.04
2022-10-26T09:30:22.260Z,15.88
2022-10-26T09:35:24.468Z,15.95
2022-10-26T09:40:28.232Z,16.15
2022-10-26T09:45:28.742Z,16.80
2022-10-26T09:50:37.233Z,17.30
2022-10-26T09:55:31.242Z,17.49
2022-10-26T10:00:25.386Z,17.80
2022-10-26T10:10:38.255Z,18.04
2022-10-26T10:15:29.982Z,18.47
2022-10-26T10:20:24.866Z,18.66
2022-10-26T10:25:32.296Z,18.72
2022-10-26T10:30:32.575Z,18.81
2022-10-26T10:35:29.650Z,18.86
2022-10-26T10:40:27.349Z,18.94
2022-10-26T10:45:25.025Z,18.93
2022-10-26T10:50:20.666Z,18.82
2022-10-26T10:55:19.831Z,19.01
2022-10-26T11:00:12.786Z,19.23
2022-10-26T11:05:22.028Z,19.40
2022-10-26T11:10:19.845Z,19.38
2022-10-26T11:15:20.531Z,19.39
2022-10-26T11:20:19.301Z,19.54
2022-10-26T11:25:22.577Z,19.49
2022-10-26T11:30:20.150Z,19.47
2022-10-26T11:35:15.548Z,19.45
2022-10-26T11:40:26.770Z,19.51
2022-10-26T11:45:24.897Z,19.59
2022-10-26T11:50:29.823Z,19.66
2022-10-26T11:55:23.025Z,19.52
2022-10-26T12:00:18.083Z,19.24
2022-10-26T12:05:15.776Z,19.03
2022-10-26T12:10:24.686Z,19.06
2022-10-26T12:21:02.838Z,19.09
2022-10-26T12:26:23.368Z,18.94
2022-10-26T12:31:37.279Z,18.78
2022-10-26T12:36:56.953Z,18.46
2022-10-26T12:41:57.813Z,18.18
2022-10-26T12:46:49.414Z,17.97
2022-10-26T12:51:43.366Z,17.80
2022-10-26T12:57:08.064Z,17.71
2022-10-26T13:02:37.886Z,17.66
2022-10-26T13:07:36.555Z,17.54
2022-10-26T13:12:36.050Z,17.43
2022-10-26T13:17:31.552Z,17.40
2022-10-26T13:22:24.673Z,17.40
2022-10-26T13:27:16.287Z,17.33
2022-10-26T13:32:08.767Z,17.31
2022-10-26T13:37:26.165Z,17.26
2022-10-26T13:42:21.818Z,17.18
2022-10-26T13:47:27.196Z,17.17
2022-10-26T13:52:33.173Z,17.10
2022-10-26T13:57:43.771Z,17.03
2022-10-26T14:02:43.027Z,17.02
2022-10-26T14:07:43.652Z,16.97
2022-10-26T14:12:35.427Z,16.91
2022-10-26T14:17:27.153Z,17.01
2022-10-26T14:22:23.239Z,17.09
2022-10-26T14:27:21.286Z,17.11
2022-10-26T14:32:33.575Z,17.06
2022-10-26T14:37:54.094Z,17.04
2022-10-26T14:42:51.532Z,17.02
2022-10-26T14:47:46.908Z,17.01
2022-10-26T14:52:38.668Z,16.93
2022-10-26T14:57:36.972Z,17.00
2022-10-26T15:02:28.778Z,16.99
2022-10-26T15:07:20.438Z,16.95
2022-10-26T15:12:22.822Z,16.91
2022-10-26T15:17:22.697Z,16.85
2022-10-26T15:22:33.645Z,16.74
2022-10-26T15:27:25.830Z,16.70
2022-10-26T15:32:32.354Z,16.72
2022-10-26T15:37:24.029Z,16.69
2022-10-26T15:42:15.750Z,16.64
2022-10-26T15:47:18.836Z,16.52
2022-10-26T15:52:10.692Z,16.44
2022-10-26T15:57:02.441Z,16.38
2022-10-26T16:01:54.397Z,16.31
2022-10-26T16:06:46.667Z,16.21
2022-10-26T16:11:38.575Z,16.13
2022-10-26T16:16:30.336Z,16.02
2022-10-26T16:21:23.142Z,15.91
2022-10-26T16:26:15.149Z,15.83
2022-10-26T16:31:10.349Z,15.80
2022-10-26T16:36:03.292Z,15.75
2022-10-26T16:41:12.432Z,15.67
2022-10-26T16:46:13.949Z,15.59
2022-10-26T16:51:11.297Z,15.55
2022-10-26T16:56:08.523Z,15.49
2022-10-26T17:01:00.405Z,15.45
2022-10-26T17:06:03.850Z,15.39
2022-10-26T17:11:01.769Z,15.38
2022-10-26T17:15:53.712Z,15.36
2022-10-26T17:20:50.812Z,15.37
2022-10-26T17:25:42.566Z,15.37
2022-10-26T17:30:34.995Z,15.37
2022-10-26T17:35:26.741Z,15.33
2022-10-26T17:40:18.412Z,15.26
2022-10-26T17:45:10.527Z,15.13
2022-10-26T17:50:04.939Z,15.08
2022-10-26T17:54:59.204Z,15.04
2022-10-26T17:59:53.576Z,14.97
2022-10-26T18:04:45.878Z,14.89
2022-10-26T18:09:37.739Z,14.86
2022-10-26T18:14:29.538Z,14.78
2022-10-26T18:19:21.362Z,14.68
2022-10-26T18:24:13.010Z,14.55
2022-10-26T18:29:05.880Z,14.53
2022-10-26T18:34:02.677Z,14.43
2022-10-26T18:38:55.238Z,14.32
2022-10-26T18:43:52.027Z,14.25
2022-10-26T18:48:43.850Z,14.16
2022-10-26T18:53:37.349Z,14.10
2022-10-26T18:58:30.746Z,14.00
2022-10-26T19:03:22.421Z,13.94
2022-10-26T19:08:14.065Z,13.92
2022-10-26T19:13:07.340Z,13.87
2022-10-26T19:17:59.832Z,13.84
2022-10-26T19:22:54.709Z,13.78
2022-10-26T19:27:47.082Z,13.77
2022-10-26T19:32:39.367Z,13.73
2022-10-26T19:37:31.145Z,13.71
2022-10-26T19:42:22.929Z,13.69
2022-10-26T19:47:14.672Z,13.67
2022-10-26T19:52:06.319Z,13.60
2022-10-26T19:56:58.274Z,13.59
2022-10-26T20:01:49.953Z,13.55
2022-10-26T20:06:41.637Z,13.52
2022-10-26T20:11:35.134Z,13.49
2022-10-26T20:16:26.892Z,13.40
2022-10-26T20:21:18.604Z,13.33
2022-10-26T20:26:11.917Z,13.25
2022-10-26T20:31:05.475Z,13.22
2022-10-26T20:36:00.369Z,13.23
2022-10-26T20:40:57.671Z,13.25
2022-10-26T20:45:49.646Z,13.28
2022-10-26T20:50:44.604Z,13.30
2022-10-26T20:55:42.930Z,13.35
2022-10-26T21:00:42.956Z,13.37
2022-10-26T21:05:34.935Z,13.40
2022-10-26T21:10:29.438Z,13.45
2022-10-26T21:15:21.164Z,13.46
2022-10-26T21:20:12.858Z,13.48
2022-10-26T21:25:04.715Z,13.54
2022-10-26T21:29:56.617Z,13.58
2022-10-26T21:34:48.253Z,13.60
2022-10-26T21:39:39.907Z,13.63
2022-10-26T21:44:46.868Z,13.61
2022-10-26T21:54:36.188Z,13.52
2022-10-26T21:59:27.841Z,13.45
2022-10-26T22:04:19.607Z,13.35
2022-10-26T22:09:11.216Z,13.29
2022-10-26T22:14:02.945Z,13.22
2022-10-26T22:18:56.357Z,13.19
2022-10-26T22:23:48.280Z,13.12
2022-10-26T22:28:42.839Z,13.04
2022-10-26T22:33:36.260Z,12.92
2022-10-26T22:38:27.983Z,12.87
2022-10-26T22:43:19.565Z,12.81
2022-10-26T22:48:11.225Z,12.79
2022-10-26T22:53:02.972Z,12.76
2022-10-26T22:57:54.909Z,12.72
2022-10-26T23:02:46.813Z,12.65
2022-10-26T23:07:38.491Z,12.60
2022-10-26T23:12:30.163Z,12.55
2022-10-26T23:17:21.869Z,12.51
2022-10-26T23:22:13.570Z,12.48
2022-10-26T23:27:05.170Z,12.46
2022-10-26T23:31:56.773Z,12.45
2022-10-26T23:36:48.773Z,12.43
2022-10-26T23:41:40.366Z,12.39
2022-10-26T23:46:32.070Z,12.36
2022-10-26T23:51:23.726Z,12.35
2022-10-26T23:56:15.401Z,12.32
